createdAt,value
2017-06-20T00:01:30.998Z,20.30
2017-06-20T00:03:59.721Z,20.20
2017-06-20T00:06:28.972Z,20.20
2017-06-20T00:08:57.501Z,20.10
2017-06-20T00:11:27.007Z,20.20
2017-06-20T00:13:56.301Z,20.20
2017-06-20T00:16:25.532Z,20.20
2017-06-20T00:18:54.025Z,20.10
2017-06-20T00:21:23.191Z,20.10
2017-06-20T00:23:52.441Z,20.10
2017-06-20T00:26:20.930Z,20.00
2017-06-20T00:28:49.455Z,20.00
2017-06-20T00:31:18.720Z,20.00
2017-06-20T00:33:47.214Z,20.00
2017-06-20T00:36:15.755Z,20.00
2017-06-20T00:38:44.598Z,19.90
2017-06-20T00:41:13.893Z,19.90
2017-06-20T00:43:42.666Z,19.90
2017-06-20T00:46:11.470Z,19.90
2017-06-20T00:48:40.766Z,19.90
2017-06-20T00:51:09.296Z,19.80
2017-06-20T00:53:37.805Z,19.90
2017-06-20T00:56:06.392Z,19.80
2017-06-20T00:58:34.898Z,19.80
2017-06-20T01:01:03.591Z,19.70
2017-06-20T01:03:32.237Z,19.70
2017-06-20T01:06:02.362Z,19.70
2017-06-20T01:08:30.900Z,19.70
2017-06-20T01:11:00.162Z,19.70
2017-06-20T01:13:28.662Z,19.60
2017-06-20T01:15:57.162Z,19.70
2017-06-20T01:18:26.393Z,19.60
2017-06-20T01:20:54.876Z,19.50
2017-06-20T01:23:23.355Z,19.50
2017-06-20T01:25:52.536Z,19.50
2017-06-20T01:28:21.773Z,19.50
2017-06-20T01:30:50.451Z,19.50
2017-06-20T01:33:19.209Z,19.60
2017-06-20T01:35:47.725Z,19.70
2017-06-20T01:38:16.186Z,19.80
2017-06-20T01:40:44.725Z,19.70
2017-06-20T01:43:13.314Z,19.70
2017-06-20T01:45:41.971Z,19.70
2017-06-20T01:48:10.710Z,19.70
2017-06-20T01:50:41.433Z,19.60
2017-06-20T01:53:10.105Z,19.50
2017-06-20T01:55:38.688Z,19.60
2017-06-20T01:58:07.234Z,19.50
2017-06-20T02:00:35.935Z,19.50
2017-06-20T02:03:04.473Z,19.50
2017-06-20T02:05:33.906Z,19.50
2017-06-20T02:08:02.458Z,19.40
2017-06-20T02:10:32.946Z,19.40
2017-06-20T02:13:01.470Z,19.40
2017-06-20T02:15:30.010Z,19.50
2017-06-20T02:17:58.806Z,19.40
2017-06-20T02:20:27.416Z,19.40
2017-06-20T02:22:55.907Z,19.30
2017-06-20T02:25:24.703Z,19.30
2017-06-20T02:27:53.965Z,19.20
2017-06-20T02:30:23.009Z,19.20
2017-06-20T02:32:51.538Z,19.30
2017-06-20T02:35:20.022Z,19.30
2017-06-20T02:37:48.530Z,19.30
2017-06-20T02:40:17.027Z,19.30
2017-06-20T02:42:46.286Z,19.30
2017-06-20T02:45:15.008Z,19.30
2017-06-20T02:47:44.559Z,19.40
2017-06-20T02:50:13.210Z,19.30
2017-06-20T02:52:43.142Z,19.30
2017-06-20T02:55:11.623Z,19.20
2017-06-20T02:57:40.296Z,19.30
2017-06-20T03:00:09.534Z,19.20
2017-06-20T03:02:38.037Z,19.10
2017-06-20T03:05:06.525Z,19.10
2017-06-20T03:07:35.025Z,19.10
2017-06-20T03:10:03.522Z,19.10
2017-06-20T03:12:33.231Z,19.10
2017-06-20T03:15:02.522Z,19.10
2017-06-20T03:17:31.208Z,19.00
2017-06-20T03:19:59.711Z,19.00
2017-06-20T03:22:29.202Z,19.00
2017-06-20T03:24:58.490Z,18.90
2017-06-20T03:27:27.414Z,18.90
2017-06-20T03:29:56.093Z,18.90
2017-06-20T03:32:25.310Z,18.90
2017-06-20T03:34:53.801Z,18.80
2017-06-20T03:37:22.279Z,18.90
2017-06-20T03:39:51.006Z,18.80
2017-06-20T03:42:19.498Z,18.90
2017-06-20T03:44:48.062Z,18.90
2017-06-20T03:47:16.678Z,18.90
2017-06-20T03:49:45.383Z,18.80
2017-06-20T03:52:15.237Z,18.90
2017-06-20T03:54:43.764Z,18.80
2017-06-20T03:57:12.278Z,18.90
2017-06-20T03:59:40.906Z,19.00
2017-06-20T04:02:09.620Z,18.90
2017-06-20T04:04:38.173Z,18.90
2017-06-20T04:07:07.150Z,19.00
2017-06-20T04:09:35.663Z,19.00
2017-06-20T04:12:04.386Z,19.00
2017-06-20T04:14:33.620Z,19.00
2017-06-20T04:17:02.090Z,18.90
2017-06-20T04:19:30.854Z,19.00
2017-06-20T04:22:00.109Z,19.00
2017-06-20T04:24:28.549Z,18.90
2017-06-20T04:26:57.713Z,19.10
2017-06-20T04:29:26.422Z,19.20
2017-06-20T04:31:55.807Z,19.30
2017-06-20T04:34:24.410Z,19.20
2017-06-20T04:36:53.693Z,19.50
2017-06-20T04:39:22.166Z,19.40
2017-06-20T04:41:50.661Z,19.50
2017-06-20T04:44:19.151Z,19.60
2017-06-20T04:46:48.391Z,19.70
2017-06-20T04:49:16.978Z,19.70
2017-06-20T04:51:46.017Z,19.80
2017-06-20T04:54:14.557Z,19.90
2017-06-20T04:56:43.054Z,20.10
2017-06-20T04:59:11.666Z,20.30
2017-06-20T05:01:40.152Z,20.50
2017-06-20T05:04:08.642Z,20.90
2017-06-20T05:06:37.932Z,21.30
2017-06-20T05:09:06.600Z,21.30
2017-06-20T05:11:35.665Z,21.60
2017-06-20T05:14:04.206Z,21.90
2017-06-20T05:16:33.231Z,22.40
2017-06-20T05:19:01.110Z,22.60
2017-06-20T05:21:29.130Z,22.90
2017-06-20T05:23:57.819Z,23.00
2017-06-20T05:26:25.849Z,23.00
2017-06-20T05:28:54.370Z,23.20
2017-06-20T05:31:22.254Z,23.70
2017-06-20T05:33:50.232Z,24.00
2017-06-20T05:36:18.875Z,24.30
2017-06-20T05:38:47.333Z,24.30
2017-06-20T05:41:15.893Z,24.00
2017-06-20T05:43:44.394Z,24.10
2017-06-20T05:46:13.413Z,23.60
2017-06-20T05:48:41.958Z,23.40
2017-06-20T05:51:10.449Z,23.10
2017-06-20T05:53:38.942Z,22.80
2017-06-20T05:56:07.582Z,22.70
2017-06-20T05:58:36.861Z,22.20
2017-06-20T06:01:05.411Z,22.10
2017-06-20T06:03:34.046Z,22.00
2017-06-20T06:06:02.754Z,21.90
2017-06-20T06:08:31.984Z,22.00
2017-06-20T06:11:00.926Z,22.00
2017-06-20T06:13:29.592Z,22.10
2017-06-20T06:15:58.117Z,22.10
2017-06-20T06:18:27.515Z,22.10
2017-06-20T06:20:56.309Z,22.10
2017-06-20T06:23:25.766Z,22.20
2017-06-20T06:25:54.275Z,22.10
2017-06-20T06:28:23.563Z,22.10
2017-06-20T06:30:52.285Z,22.20
2017-06-20T06:33:22.133Z,22.30
2017-06-20T06:35:50.638Z,22.20
2017-06-20T06:38:19.165Z,22.20
2017-06-20T06:40:48.443Z,22.30
2017-06-20T06:43:17.156Z,22.30
2017-06-20T06:45:45.790Z,22.30
2017-06-20T06:48:14.514Z,22.40
2017-06-20T06:50:44.603Z,22.30
2017-06-20T06:53:13.540Z,22.30
2017-06-20T06:55:43.072Z,22.50
2017-06-20T06:58:11.940Z,22.50
2017-06-20T07:00:41.239Z,22.90
2017-06-20T07:03:10.494Z,23.10
2017-06-20T07:05:39.432Z,23.10
2017-06-20T07:08:09.705Z,24.00
2017-06-20T07:10:39.019Z,24.00
2017-06-20T07:13:08.001Z,24.40
2017-06-20T07:15:36.550Z,24.50
2017-06-20T07:18:05.074Z,24.50
2017-06-20T07:20:33.539Z,24.90
2017-06-20T07:23:02.141Z,25.40
2017-06-20T07:25:30.654Z,25.80
2017-06-20T07:27:59.972Z,26.60
2017-06-20T07:30:29.254Z,26.90
2017-06-20T07:32:57.185Z,26.80
2017-06-20T07:35:25.156Z,27.10
2017-06-20T07:37:54.264Z,27.90
2017-06-20T07:40:22.233Z,27.50
2017-06-20T07:42:50.198Z,27.30
2017-06-20T07:45:18.676Z,27.80
2017-06-20T07:47:46.888Z,27.40
2017-06-20T07:50:15.499Z,28.30
2017-06-20T07:52:43.437Z,28.30
2017-06-20T07:55:11.532Z,28.90
2017-06-20T07:57:40.833Z,28.30
2017-06-20T08:00:09.519Z,28.40
2017-06-20T08:02:38.146Z,28.00
2017-06-20T08:05:06.070Z,27.90
2017-06-20T08:07:34.759Z,28.70
2017-06-20T08:10:03.425Z,28.70
2017-06-20T08:12:31.271Z,28.60
2017-06-20T08:14:59.544Z,28.60
2017-06-20T08:17:27.456Z,28.80
2017-06-20T08:19:56.306Z,28.40
2017-06-20T08:22:24.214Z,28.40
2017-06-20T08:24:52.845Z,29.50
2017-06-20T08:27:20.769Z,29.40
2017-06-20T08:29:48.693Z,28.80
2017-06-20T08:32:16.687Z,28.80
2017-06-20T08:34:45.191Z,28.60
2017-06-20T08:37:18.383Z,28.70
2017-06-20T08:39:47.032Z,28.60
2017-06-20T08:42:14.914Z,28.50
2017-06-20T08:44:43.607Z,28.70
2017-06-20T08:47:13.085Z,28.50
2017-06-20T08:49:41.796Z,28.40
2017-06-20T08:52:10.503Z,28.50
2017-06-20T08:54:39.786Z,29.00
2017-06-20T08:57:08.434Z,28.90
2017-06-20T08:59:36.302Z,29.30
2017-06-20T09:02:04.165Z,29.40
2017-06-20T09:04:32.299Z,29.20
2017-06-20T09:07:00.958Z,30.10
2017-06-20T09:09:28.893Z,30.00
2017-06-20T09:11:57.131Z,29.90
2017-06-20T09:14:25.753Z,29.80
2017-06-20T09:16:53.685Z,29.70
2017-06-20T09:19:22.371Z,29.80
2017-06-20T09:21:50.998Z,30.20
2017-06-20T09:24:18.893Z,30.10
2017-06-20T09:26:46.934Z,30.00
2017-06-20T09:29:14.779Z,29.80
2017-06-20T09:31:43.989Z,29.80
2017-06-20T09:34:12.443Z,29.90
2017-06-20T09:36:41.161Z,30.20
2017-06-20T09:39:09.129Z,30.10
2017-06-20T09:41:37.021Z,30.40
2017-06-20T09:44:05.072Z,30.70
2017-06-20T09:46:32.950Z,30.50
2017-06-20T09:49:01.310Z,29.60
2017-06-20T09:51:29.255Z,30.10
2017-06-20T09:54:02.658Z,30.30
2017-06-20T09:56:30.539Z,30.20
2017-06-20T09:58:58.543Z,30.30
2017-06-20T10:01:26.559Z,30.00
2017-06-20T10:03:54.477Z,29.90
2017-06-20T10:06:22.989Z,29.10
2017-06-20T10:08:52.110Z,29.20
2017-06-20T10:11:20.999Z,28.80
2017-06-20T10:13:50.537Z,29.60
2017-06-20T10:16:18.505Z,29.50
2017-06-20T10:18:46.441Z,30.10
2017-06-20T10:21:15.077Z,29.70
2017-06-20T10:23:42.974Z,29.70
2017-06-20T10:26:11.075Z,29.70
2017-06-20T10:28:38.986Z,29.30
2017-06-20T10:31:08.009Z,29.10
2017-06-20T10:33:36.997Z,29.40
2017-06-20T10:36:05.506Z,29.40
2017-06-20T10:38:34.047Z,29.20
2017-06-20T10:41:02.543Z,28.70
2017-06-20T10:43:31.214Z,28.50
2017-06-20T10:45:59.775Z,28.70
2017-06-20T10:48:28.262Z,28.50
2017-06-20T10:50:56.779Z,28.80
2017-06-20T10:53:25.369Z,28.80
2017-06-20T10:55:53.866Z,28.90
2017-06-20T10:58:25.671Z,28.40
2017-06-20T11:00:54.155Z,28.30
2017-06-20T11:03:22.734Z,28.60
2017-06-20T11:05:51.283Z,28.40
2017-06-20T11:08:20.789Z,28.50
2017-06-20T11:10:50.098Z,28.50
2017-06-20T11:13:18.752Z,28.40
2017-06-20T11:15:48.635Z,28.00
2017-06-20T11:18:17.736Z,28.00
2017-06-20T11:20:47.365Z,28.40
2017-06-20T11:23:15.220Z,28.90
2017-06-20T11:25:43.425Z,29.40
2017-06-20T11:28:11.294Z,29.10
2017-06-20T11:30:39.910Z,29.20
2017-06-20T11:33:07.860Z,29.20
2017-06-20T11:35:37.182Z,28.80
2017-06-20T11:38:05.849Z,28.70
2017-06-20T11:40:35.073Z,29.20
2017-06-20T11:43:03.632Z,29.20
2017-06-20T11:45:32.270Z,29.00
2017-06-20T11:48:00.370Z,28.90
2017-06-20T11:50:32.310Z,29.00
2017-06-20T11:53:00.179Z,29.10
2017-06-20T11:55:28.291Z,29.10
2017-06-20T11:57:56.977Z,29.20
2017-06-20T12:00:26.116Z,29.40
2017-06-20T12:02:54.202Z,29.40
2017-06-20T12:05:22.425Z,29.70
2017-06-20T12:07:51.724Z,30.10
2017-06-20T12:10:20.349Z,30.00
2017-06-20T12:12:50.711Z,30.00
2017-06-20T12:15:20.827Z,30.30
2017-06-20T12:17:49.184Z,30.30
2017-06-20T12:20:17.185Z,30.10
2017-06-20T12:22:46.268Z,29.40
2017-06-20T12:25:15.140Z,29.80
2017-06-20T12:27:44.066Z,29.40
2017-06-20T12:30:12.721Z,29.90
2017-06-20T12:32:42.894Z,30.40
2017-06-20T12:35:11.997Z,30.30
2017-06-20T12:37:41.269Z,30.40
2017-06-20T12:40:09.972Z,30.50
2017-06-20T12:42:39.848Z,29.90
2017-06-20T12:45:09.409Z,29.80
2017-06-20T12:47:38.144Z,30.00
2017-06-20T12:50:07.140Z,29.80
2017-06-20T12:52:35.559Z,30.50
2017-06-20T12:55:04.316Z,31.00
2017-06-20T12:57:32.988Z,30.30
2017-06-20T13:00:00.916Z,30.30
2017-06-20T13:02:29.162Z,30.20
2017-06-20T13:04:59.298Z,30.00
2017-06-20T13:07:27.513Z,29.90
2017-06-20T13:09:55.853Z,30.30
2017-06-20T13:12:25.416Z,30.70
2017-06-20T13:14:54.105Z,30.60
2017-06-20T13:17:24.306Z,30.60
2017-06-20T13:19:54.616Z,30.50
2017-06-20T13:22:25.909Z,29.30
2017-06-20T13:24:55.807Z,28.90
2017-06-20T13:27:27.145Z,28.70
2017-06-20T13:29:58.796Z,28.90
2017-06-20T13:32:28.286Z,28.60
2017-06-20T13:34:57.630Z,28.40
2017-06-20T13:37:28.167Z,28.30
2017-06-20T13:39:57.887Z,28.00
2017-06-20T13:42:27.998Z,27.30
2017-06-20T13:44:57.227Z,27.30
2017-06-20T13:47:25.911Z,27.50
2017-06-20T13:49:55.415Z,27.30
2017-06-20T13:52:24.854Z,26.90
2017-06-20T13:54:53.518Z,26.90
2017-06-20T13:57:22.529Z,26.80
2017-06-20T13:59:51.287Z,26.80
2017-06-20T14:02:19.880Z,26.50
2017-06-20T14:04:49.589Z,25.90
2017-06-20T14:07:18.919Z,26.10
2017-06-20T14:09:47.982Z,26.10
2017-06-20T14:12:16.650Z,26.10
2017-06-20T14:14:45.303Z,25.80
2017-06-20T14:17:13.858Z,25.90
2017-06-20T14:19:42.646Z,26.00
2017-06-20T14:22:11.421Z,26.00
2017-06-20T14:24:40.704Z,25.80
2017-06-20T14:27:09.405Z,25.70
2017-06-20T14:29:39.327Z,25.60
2017-06-20T14:32:07.861Z,25.60
2017-06-20T14:34:36.375Z,25.50
2017-06-20T14:37:04.902Z,25.40
2017-06-20T14:39:34.476Z,25.50
2017-06-20T14:42:03.939Z,25.10
2017-06-20T14:44:32.455Z,25.00
2017-06-20T14:47:01.102Z,24.90
2017-06-20T14:49:29.718Z,24.70
2017-06-20T14:51:58.747Z,24.70
2017-06-20T14:54:29.750Z,24.60
2017-06-20T14:56:58.665Z,24.50
2017-06-20T14:59:27.251Z,24.30
2017-06-20T15:01:56.711Z,24.30
2017-06-20T15:04:25.601Z,24.20
2017-06-20T15:06:54.179Z,24.20
2017-06-20T15:09:22.849Z,24.30
2017-06-20T15:11:51.764Z,24.20
2017-06-20T15:14:20.546Z,23.80
2017-06-20T15:16:49.741Z,23.90
2017-06-20T15:19:18.380Z,23.80
2017-06-20T15:21:47.826Z,23.50
2017-06-20T15:24:16.327Z,23.50
2017-06-20T15:26:45.058Z,23.50
2017-06-20T15:29:14.414Z,23.40
2017-06-20T15:31:42.979Z,23.30
2017-06-20T15:34:11.887Z,23.30
2017-06-20T15:36:42.034Z,23.50
2017-06-20T15:39:10.990Z,23.30
2017-06-20T15:41:40.190Z,23.10
2017-06-20T15:44:08.941Z,23.10
2017-06-20T15:46:38.211Z,22.80
2017-06-20T15:49:14.565Z,22.80
2017-06-20T15:51:43.129Z,22.90
2017-06-20T15:54:11.714Z,23.00
2017-06-20T15:56:40.298Z,22.90
2017-06-20T15:59:08.864Z,22.90
2017-06-20T16:01:37.505Z,22.90
2017-06-20T16:04:06.022Z,22.90
2017-06-20T16:06:34.932Z,22.80
2017-06-20T16:09:03.721Z,22.70
2017-06-20T16:11:32.359Z,22.60
2017-06-20T16:14:00.994Z,22.40
2017-06-20T16:16:29.738Z,22.30
2017-06-20T16:18:58.380Z,22.40
2017-06-20T16:21:26.921Z,22.30
2017-06-20T16:23:58.832Z,22.10
2017-06-20T16:26:27.962Z,22.10
2017-06-20T16:28:59.794Z,22.10
2017-06-20T16:31:28.413Z,22.00
2017-06-20T16:33:58.171Z,21.80
2017-06-20T16:36:27.854Z,21.70
2017-06-20T16:38:57.213Z,21.60
2017-06-20T16:41:26.252Z,21.50
2017-06-20T16:43:55.754Z,21.60
2017-06-20T16:46:25.225Z,21.50
2017-06-20T16:48:53.948Z,21.40
2017-06-20T16:51:23.231Z,21.20
2017-06-20T16:53:52.141Z,21.10
2017-06-20T16:56:21.670Z,21.10
2017-06-20T16:58:50.566Z,21.10
2017-06-20T17:01:19.227Z,21.20
2017-06-20T17:03:48.016Z,21.20
2017-06-20T17:06:17.254Z,21.20
2017-06-20T17:08:46.329Z,21.00
2017-06-20T17:11:14.853Z,21.00
2017-06-20T17:13:43.409Z,20.80
2017-06-20T17:16:12.577Z,20.70
2017-06-20T17:18:42.085Z,20.70
2017-06-20T17:21:11.366Z,20.70
2017-06-20T17:23:39.870Z,20.60
2017-06-20T17:26:09.166Z,20.60
2017-06-20T17:28:38.445Z,20.70
2017-06-20T17:31:07.139Z,20.60
2017-06-20T17:33:36.083Z,20.70
2017-06-20T17:36:04.767Z,20.70
2017-06-20T17:38:33.338Z,20.60
2017-06-20T17:41:01.910Z,20.60
2017-06-20T17:43:30.573Z,20.40
2017-06-20T17:45:59.239Z,20.30
2017-06-20T17:48:32.593Z,20.10
2017-06-20T17:51:01.318Z,20.30
2017-06-20T17:53:30.215Z,20.20
2017-06-20T17:55:58.126Z,20.10
2017-06-20T17:58:26.573Z,20.10
2017-06-20T18:00:54.656Z,19.90
2017-06-20T18:03:23.574Z,19.70
2017-06-20T18:05:52.261Z,19.70
2017-06-20T18:08:20.925Z,19.60
2017-06-20T18:10:52.027Z,19.50
2017-06-20T18:13:20.725Z,19.50
2017-06-20T18:15:49.335Z,19.50
2017-06-20T18:18:18.170Z,19.30
2017-06-20T18:20:47.048Z,19.30
2017-06-20T18:23:15.681Z,19.20
2017-06-20T18:25:44.179Z,19.10
2017-06-20T18:28:12.750Z,19.20
2017-06-20T18:30:40.707Z,19.10
2017-06-20T18:33:08.585Z,18.90
2017-06-20T18:35:36.912Z,18.90
2017-06-20T18:38:06.213Z,18.80
2017-06-20T18:40:35.723Z,18.80
2017-06-20T18:43:05.163Z,18.70
2017-06-20T18:45:33.709Z,18.60
2017-06-20T18:48:03.267Z,18.60
2017-06-20T18:50:31.798Z,18.50
2017-06-20T18:53:00.339Z,18.40
2017-06-20T18:55:29.075Z,18.30
2017-06-20T18:57:58.358Z,18.20
2017-06-20T19:00:27.062Z,18.10
2017-06-20T19:02:56.804Z,18.10
2017-06-20T19:05:25.462Z,18.00
2017-06-20T19:07:54.147Z,18.00
2017-06-20T19:10:23.447Z,17.80
2017-06-20T19:12:52.938Z,17.80
2017-06-20T19:15:21.641Z,17.70
2017-06-20T19:17:50.306Z,17.80
2017-06-20T19:20:19.777Z,17.60
2017-06-20T19:22:48.520Z,17.50
2017-06-20T19:25:18.413Z,17.40
2017-06-20T19:27:47.107Z,17.30
2017-06-20T19:30:15.734Z,17.30
2017-06-20T19:32:44.497Z,17.30
2017-06-20T19:35:13.185Z,17.20
2017-06-20T19:37:42.667Z,17.10
2017-06-20T19:40:11.211Z,17.00
2017-06-20T19:42:39.813Z,17.00
2017-06-20T19:45:08.839Z,17.00
2017-06-20T19:47:37.391Z,16.90
2017-06-20T19:50:05.994Z,16.80
2017-06-20T19:52:34.782Z,16.80
2017-06-20T19:55:03.524Z,16.60
2017-06-20T19:57:32.249Z,16.60
2017-06-20T20:00:00.810Z,16.50
2017-06-20T20:02:29.340Z,16.40
2017-06-20T20:04:58.466Z,16.40
2017-06-20T20:07:27.411Z,16.30
2017-06-20T20:09:55.991Z,16.30
2017-06-20T20:12:24.506Z,16.20
2017-06-20T20:14:53.925Z,16.10
2017-06-20T20:17:22.452Z,16.10
2017-06-20T20:19:51.172Z,16.00
2017-06-20T20:22:20.291Z,16.00
2017-06-20T20:24:49.596Z,15.80
2017-06-20T20:27:18.339Z,15.80
2017-06-20T20:29:46.868Z,15.90
2017-06-20T20:32:16.143Z,15.80
2017-06-20T20:34:44.905Z,15.80
2017-06-20T20:37:13.801Z,15.70
2017-06-20T20:39:42.387Z,15.70
2017-06-20T20:42:11.071Z,15.60
2017-06-20T20:44:39.645Z,15.60
2017-06-20T20:47:08.190Z,15.50
2017-06-20T20:49:36.870Z,15.50
2017-06-20T20:52:05.440Z,15.40
2017-06-20T20:54:34.249Z,15.40
2017-06-20T20:57:03.382Z,15.30
2017-06-20T20:59:31.906Z,15.30
2017-06-20T21:02:00.851Z,15.20
2017-06-20T21:04:29.454Z,15.30
2017-06-20T21:06:58.276Z,15.20
2017-06-20T21:09:28.704Z,15.10
2017-06-20T21:11:57.289Z,15.00
2017-06-20T21:14:26.131Z,15.10
2017-06-20T21:16:54.683Z,15.00
2017-06-20T21:19:23.974Z,15.00
2017-06-20T21:21:53.218Z,14.90
2017-06-20T21:24:21.758Z,14.80
2017-06-20T21:26:50.308Z,14.90
2017-06-20T21:29:18.887Z,14.80
2017-06-20T21:31:47.507Z,14.80
2017-06-20T21:34:16.205Z,14.70
2017-06-20T21:36:44.898Z,14.70
2017-06-20T21:39:13.390Z,14.70
2017-06-20T21:41:42.354Z,14.70
2017-06-20T21:44:10.911Z,14.60
2017-06-20T21:46:39.578Z,14.60
2017-06-20T21:49:08.146Z,14.60
2017-06-20T21:51:36.848Z,14.50
2017-06-20T21:54:05.501Z,14.40
2017-06-20T21:56:34.953Z,14.40
2017-06-20T21:59:03.606Z,14.30
2017-06-20T22:01:32.369Z,14.30
2017-06-20T22:04:00.935Z,14.30
2017-06-20T22:06:29.851Z,14.30
2017-06-20T22:08:59.658Z,14.20
2017-06-20T22:11:28.173Z,14.10
2017-06-20T22:13:56.750Z,14.30
2017-06-20T22:16:25.562Z,14.20
2017-06-20T22:18:54.168Z,14.10
2017-06-20T22:21:22.778Z,14.10
2017-06-20T22:23:51.459Z,14.00
2017-06-20T22:26:20.380Z,14.00
2017-06-20T22:28:49.491Z,14.00
2017-06-20T22:31:18.167Z,13.90
2017-06-20T22:33:47.605Z,13.80
2017-06-20T22:36:16.522Z,13.80
2017-06-20T22:38:45.299Z,13.80
2017-06-20T22:41:13.937Z,13.80
2017-06-20T22:43:43.282Z,13.60
2017-06-20T22:46:11.928Z,13.60
2017-06-20T22:48:41.437Z,13.70
2017-06-20T22:51:10.126Z,13.60
2017-06-20T22:53:38.651Z,13.70
2017-06-20T22:56:07.165Z,13.60
2017-06-20T22:58:35.693Z,13.50
2017-06-20T23:01:04.210Z,13.50
2017-06-20T23:03:32.975Z,13.40
2017-06-20T23:06:01.482Z,13.50
2017-06-20T23:08:30.286Z,13.50
2017-06-20T23:10:58.789Z,13.40
2017-06-20T23:13:28.022Z,13.40
2017-06-20T23:15:56.637Z,13.30
2017-06-20T23:18:25.189Z,13.40
2017-06-20T23:20:53.719Z,13.30
2017-06-20T23:23:22.407Z,13.20
2017-06-20T23:25:51.491Z,13.30
2017-06-20T23:28:20.210Z,13.30
2017-06-20T23:30:49.470Z,13.20
2017-06-20T23:33:18.044Z,13.20
2017-06-20T23:35:46.909Z,13.20
2017-06-20T23:38:15.591Z,13.20
2017-06-20T23:40:44.274Z,13.20
2017-06-20T23:43:13.734Z,13.20
2017-06-20T23:45:42.602Z,13.00
2017-06-20T23:48:11.156Z,13.10
2017-06-20T23:50:40.505Z,13.00
2017-06-20T23:53:08.971Z,12.90
2017-06-20T23:55:37.570Z,12.90
2017-06-20T23:58:06.103Z,12.90
